Time;durP1;ratioP1;P1;durP2;ratioP2;P2;SDS_P1;SDS_P2;PMS_P1;PMS_P2;Temp;Humidity;BMP_temperature;BMP_pressure;BME280_temperature;BME280_humidity;BME280_pressure;Samples;Min_cycle;Max_cycle;Signal;HPM_P1;HPM_P2
2023/01/07 00:01:42;;;;;;;2.30;1.70;;;11.60;99.90;;;;;;4991234;28;20556;-72
2023/01/07 00:04:11;;;;;;;1.90;1.60;;;11.60;99.90;;;;;;4971579;28;20473;-72
2023/01/07 00:06:39;;;;;;;2.10;1.80;;;11.60;99.90;;;;;;4981628;28;20927;-72
2023/01/07 00:09:07;;;;;;;1.50;1.40;;;11.60;99.90;;;;;;4989647;28;20496;-72
2023/01/07 00:11:35;;;;;;;1.67;1.50;;;11.60;99.90;;;;;;4972411;28;20811;-72
2023/01/07 00:14:03;;;;;;;1.80;1.57;;;11.60;99.90;;;;;;4978353;28;20449;-72
2023/01/07 00:16:31;;;;;;;2.13;1.70;;;11.60;99.90;;;;;;4991724;28;20422;-72
2023/01/07 00:18:59;;;;;;;2.27;1.90;;;11.60;99.90;;;;;;4985973;28;20452;-72
2023/01/07 00:21:27;;;;;;;2.30;1.63;;;11.60;99.90;;;;;;4975095;28;20482;-72
2023/01/07 00:23:55;;;;;;;1.80;1.57;;;11.60;99.90;;;;;;4980873;28;20464;-72
2023/01/07 00:26:23;;;;;;;1.57;1.47;;;11.60;99.90;;;;;;4973586;28;20442;-73
2023/01/07 00:28:51;;;;;;;2.30;1.53;;;11.60;99.90;;;;;;4986201;28;20861;-73
2023/01/07 00:31:22;;;;;;;1.90;1.40;;;11.60;99.90;;;;;;4971206;28;20438;-73
2023/01/07 00:36:33;;;;;;;2.20;1.43;;;11.60;99.90;;;;;;4973516;28;20402;-73
2023/01/07 00:39:08;;;;;;;1.37;1.17;;;11.60;99.90;;;;;;4967705;28;20449;-73
2023/01/07 00:41:35;;;;;;;1.80;1.70;;;11.60;99.90;;;;;;4974610;28;20485;-73
2023/01/07 00:44:01;;;;;;;1.87;1.43;;;11.60;99.90;;;;;;4990223;28;20471;-71
2023/01/07 00:46:28;;;;;;;1.70;1.27;;;11.60;99.90;;;;;;4972833;28;20477;-71
2023/01/07 00:48:54;;;;;;;2.50;1.60;;;11.60;99.90;;;;;;4971771;28;20537;-72
2023/01/07 00:51:26;;;;;;;2.43;1.70;;;11.60;99.90;;;;;;4971847;28;20907;-72
2023/01/07 00:53:52;;;;;;;1.77;1.67;;;11.60;99.90;;;;;;4972090;28;20473;-72
2023/01/07 00:56:21;;;;;;;2.13;1.60;;;11.60;99.90;;;;;;4990742;28;20433;-72
2023/01/07 00:58:47;;;;;;;1.70;1.43;;;11.60;99.90;;;;;;4991025;28;20786;-72
2023/01/07 01:01:14;;;;;;;1.97;1.73;;;11.60;99.90;;;;;;4970579;28;20497;-72
2023/01/07 01:03:40;;;;;;;2.63;1.53;;;11.60;99.90;;;;;;4986673;28;21027;-72
2023/01/07 01:06:14;;;;;;;2.07;1.63;;;11.60;99.90;;;;;;4972348;28;20439;-72
2023/01/07 01:08:43;;;;;;;1.50;1.40;;;11.60;99.90;;;;;;4971449;28;20414;-72
2023/01/07 01:11:15;;;;;;;1.97;1.67;;;11.60;99.90;;;;;;4956187;28;20462;-72
2023/01/07 01:13:41;;;;;;;4.00;1.70;;;11.60;99.90;;;;;;4939582;28;20839;-72
2023/01/07 01:16:14;;;;;;;2.57;1.70;;;11.60;99.90;;;;;;4941333;28;20505;-72
2023/01/07 01:18:45;;;;;;;2.10;1.60;;;11.60;99.90;;;;;;4974734;28;20453;-72
2023/01/07 01:21:15;;;;;;;1.53;1.43;;;11.60;99.90;;;;;;4979696;28;20974;-72
2023/01/07 01:23:43;;;;;;;1.80;1.50;;;11.60;99.90;;;;;;4955824;28;20458;-72
2023/01/07 01:26:17;;;;;;;2.50;1.53;;;11.60;99.90;;;;;;4965789;28;20468;-72
2023/01/07 01:28:45;;;;;;;6.93;1.70;;;11.60;99.90;;;;;;4969699;28;20449;-72
2023/01/07 01:31:17;;;;;;;6.07;1.70;;;11.60;99.90;;;;;;4970349;28;20955;-72
2023/01/07 01:33:53;;;;;;;3.00;1.80;;;11.50;99.90;;;;;;4985620;28;20945;-72
2023/01/07 01:36:19;;;;;;;1.67;1.50;;;11.60;99.90;;;;;;4973115;28;20442;-72
2023/01/07 01:38:45;;;;;;;1.83;1.40;;;11.60;99.90;;;;;;4975590;28;21054;-72
2023/01/07 01:41:17;;;;;;;4.50;1.50;;;11.60;99.90;;;;;;4960746;28;21084;-72
2023/01/07 01:43:47;;;;;;;1.53;1.23;;;11.60;99.90;;;;;;4975238;28;20505;-72
2023/01/07 01:46:17;;;;;;;2.20;1.67;;;11.60;99.90;;;;;;4983887;28;20412;-72
2023/01/07 01:49:11;;;;;;;2.00;1.30;;;11.60;99.90;;;;;;4974632;28;20463;-72
2023/01/07 01:51:45;;;;;;;2.03;1.53;;;11.60;99.90;;;;;;4950179;28;20460;-72
2023/01/07 01:54:14;;;;;;;2.50;1.70;;;11.60;99.90;;;;;;4965922;28;20476;-72
2023/01/07 01:56:47;;;;;;;1.40;1.23;;;11.60;99.90;;;;;;4959593;28;20418;-72
2023/01/07 01:59:22;;;;;;;1.60;1.30;;;11.60;99.90;;;;;;4961169;28;20484;-72
2023/01/07 02:01:48;;;;;;;1.67;1.40;;;11.50;99.90;;;;;;4965806;28;20485;-72
2023/01/07 02:04:22;;;;;;;1.93;1.50;;;11.60;99.90;;;;;;4962398;28;20817;-72
2023/01/07 02:07:10;;;;;;;1.63;1.50;;;11.60;99.90;;;;;;4970014;28;20946;-72
2023/01/07 02:09:40;;;;;;;1.87;1.40;;;11.60;99.90;;;;;;4975500;28;20537;-73
2023/01/07 02:12:44;;;;;;;1.40;1.17;;;11.60;99.90;;;;;;4993221;28;20886;-72
2023/01/07 02:15:24;;;;;;;2.73;1.77;;;11.50;99.90;;;;;;4975742;28;20515;-72
2023/01/07 02:17:55;;;;;;;1.33;1.23;;;11.50;99.90;;;;;;4974806;28;20416;-72
2023/01/07 02:20:39;;;;;;;1.80;1.33;;;11.50;99.90;;;;;;4975825;28;20454;-72
2023/01/07 02:23:39;;;;;;;1.80;1.30;;;11.50;99.90;;;;;;4974350;28;20442;-72
2023/01/07 02:26:33;;;;;;;2.80;1.50;;;11.50;99.90;;;;;;4976266;28;20437;-72
2023/01/07 02:29:25;;;;;;;1.80;1.33;;;11.50;99.90;;;;;;4974705;28;20753;-72
2023/01/07 02:31:56;;;;;;;1.40;1.20;;;11.50;99.90;;;;;;4992551;28;20937;-72
2023/01/07 02:34:45;;;;;;;1.50;1.10;;;11.50;99.90;;;;;;4981174;28;20863;-72
2023/01/07 02:37:34;;;;;;;1.30;1.20;;;11.50;99.90;;;;;;4974542;28;20405;-72
2023/01/07 02:40:18;;;;;;;2.30;1.10;;;11.50;99.90;;;;;;4985822;28;20498;-72
2023/01/07 02:43:16;;;;;;;2.20;1.57;;;11.50;99.90;;;;;;4958314;28;20453;-72
2023/01/07 02:46:05;;;;;;;1.37;1.10;;;11.50;99.90;;;;;;4946015;28;20494;-72
2023/01/07 02:48:38;;;;;;;1.37;1.20;;;11.50;99.90;;;;;;4993691;28;20437;-72
2023/01/07 02:51:07;;;;;;;1.70;1.50;;;11.50;99.90;;;;;;4991893;28;20444;-72
2023/01/07 02:53:35;;;;;;;1.67;1.57;;;11.50;99.90;;;;;;4977373;28;21312;-72
2023/01/07 02:56:16;;;;;;;2.30;1.43;;;11.50;99.90;;;;;;4991124;28;20508;-72
2023/01/07 02:58:52;;;;;;;2.37;1.40;;;11.50;99.90;;;;;;4993156;28;20877;-72
2023/01/07 03:01:40;;;;;;;1.30;1.17;;;11.50;99.90;;;;;;4973982;28;20835;-72
2023/01/07 03:04:09;;;;;;;2.33;1.57;;;11.50;99.90;;;;;;4967505;28;20442;-72
2023/01/07 03:06:57;;;;;;;2.17;1.30;;;11.50;99.90;;;;;;4973589;28;20446;-72
2023/01/07 03:09:57;;;;;;;2.00;1.80;;;11.50;99.90;;;;;;4983181;28;20458;-72
2023/01/07 03:12:55;;;;;;;1.50;1.20;;;11.50;99.90;;;;;;4978396;28;20414;-72
2023/01/07 03:15:44;;;;;;;1.50;1.33;;;11.50;99.90;;;;;;4941567;28;20429;-72
2023/01/07 03:18:19;;;;;;;1.70;1.60;;;11.50;99.90;;;;;;4987574;28;20449;-72
2023/01/07 03:20:51;;;;;;;2.60;1.00;;;11.50;99.90;;;;;;4991555;28;20503;-71
2023/01/07 03:23:25;;;;;;;2.70;1.50;;;11.50;99.90;;;;;;4973185;28;20509;-72
2023/01/07 03:25:56;;;;;;;2.27;1.50;;;11.50;99.90;;;;;;4992141;28;20441;-72
2023/01/07 03:28:30;;;;;;;1.80;1.40;;;11.50;99.90;;;;;;4976051;28;20495;-72
2023/01/07 03:30:58;;;;;;;1.97;1.50;;;11.50;99.90;;;;;;4983085;28;20482;-72
2023/01/07 03:33:51;;;;;;;1.80;1.40;;;11.50;99.90;;;;;;4973224;28;20861;-72
2023/01/07 03:36:26;;;;;;;1.70;1.20;;;11.50;99.90;;;;;;4964446;28;20536;-72
2023/01/07 03:38:55;;;;;;;1.90;1.43;;;11.50;99.90;;;;;;4957588;28;20425;-72
2023/01/07 03:44:07;;;;;;;5.77;1.10;;;11.50;99.90;;;;;;4959174;28;20434;-72
2023/01/07 03:46:37;;;;;;;1.37;1.20;;;11.50;99.90;;;;;;4976544;28;20443;-72
2023/01/07 03:49:06;;;;;;;2.27;1.40;;;11.50;99.90;;;;;;4992314;28;20390;-72
2023/01/07 03:51:34;;;;;;;2.37;1.43;;;11.50;99.90;;;;;;4982007;28;20438;-72
2023/01/07 03:54:01;;;;;;;1.60;1.40;;;11.50;99.90;;;;;;4964207;28;20498;-72
2023/01/07 03:56:30;;;;;;;3.53;1.70;;;11.50;99.90;;;;;;4975215;28;21949;-72
2023/01/07 03:58:59;;;;;;;2.13;1.57;;;11.40;99.90;;;;;;4971408;28;20492;-72
2023/01/07 04:01:26;;;;;;;1.60;1.20;;;11.50;99.90;;;;;;4973008;28;20443;-72
2023/01/07 04:03:53;;;;;;;1.70;1.30;;;11.40;99.90;;;;;;4956909;28;20500;-72
2023/01/07 04:06:19;;;;;;;1.87;1.57;;;11.50;99.90;;;;;;4957355;28;20467;-72
2023/01/07 04:08:45;;;;;;;1.43;1.20;;;11.40;99.90;;;;;;4956895;28;20860;-72
2023/01/07 04:11:11;;;;;;;1.80;1.53;;;11.40;99.90;;;;;;4970560;28;20448;-72
2023/01/07 04:13:45;;;;;;;1.60;1.37;;;11.40;99.90;;;;;;4972382;28;21060;-72
2023/01/07 04:16:11;;;;;;;2.83;1.40;;;11.40;99.90;;;;;;4972932;28;20427;-72
2023/01/07 04:18:37;;;;;;;1.73;1.20;;;11.40;99.90;;;;;;4976880;28;20435;-72
2023/01/07 04:21:07;;;;;;;1.80;1.20;;;11.40;99.90;;;;;;4985649;28;20453;-72
2023/01/07 04:23:33;;;;;;;1.60;1.50;;;11.40;99.90;;;;;;4962130;28;20461;-72
2023/01/07 04:26:03;;;;;;;2.00;1.30;;;11.40;99.90;;;;;;4985625;28;20817;-72
2023/01/07 04:28:31;;;;;;;2.20;1.20;;;11.40;99.90;;;;;;4987073;28;20520;-72
2023/01/07 04:30:58;;;;;;;1.80;1.40;;;11.40;99.90;;;;;;4979252;28;20428;-72
2023/01/07 04:33:27;;;;;;;1.97;1.30;;;11.40;99.90;;;;;;4956841;28;20461;-72
2023/01/07 04:35:53;;;;;;;1.70;1.30;;;11.40;99.90;;;;;;4956314;28;20435;-72
2023/01/07 04:38:21;;;;;;;3.63;1.33;;;11.40;99.90;;;;;;4981766;28;20426;-73
2023/01/07 04:40:50;;;;;;;2.00;1.80;;;11.40;99.90;;;;;;4964721;28;20473;-72
2023/01/07 04:43:16;;;;;;;1.17;1.00;;;11.40;99.90;;;;;;4972051;28;20854;-72
2023/01/07 04:45:42;;;;;;;1.60;1.30;;;11.40;99.90;;;;;;4956761;28;20414;-72
2023/01/07 04:48:10;;;;;;;1.73;1.30;;;11.40;99.90;;;;;;4959464;28;20497;-71
2023/01/07 04:50:37;;;;;;;2.47;1.50;;;11.40;99.90;;;;;;4966687;28;20485;-72
2023/01/07 04:53:06;;;;;;;1.50;1.23;;;11.40;99.90;;;;;;4970448;28;20896;-72
2023/01/07 04:55:33;;;;;;;2.57;1.57;;;11.40;99.90;;;;;;4988774;28;20449;-72
2023/01/07 04:58:00;;;;;;;1.33;1.23;;;11.40;99.90;;;;;;4975088;28;20451;-72
2023/01/07 05:00:29;;;;;;;1.50;1.20;;;11.40;99.90;;;;;;4983472;28;20847;-72
2023/01/07 05:02:59;;;;;;;1.80;1.40;;;11.40;99.90;;;;;;4975100;28;20924;-72
2023/01/07 05:05:27;;;;;;;2.23;1.60;;;11.40;99.90;;;;;;4956320;28;20430;-73
2023/01/07 05:07:54;;;;;;;2.00;1.60;;;11.40;99.90;;;;;;4956552;28;20454;-72
2023/01/07 05:10:22;;;;;;;1.90;1.40;;;11.30;99.90;;;;;;4978101;28;20540;-72
2023/01/07 05:12:48;;;;;;;1.93;1.30;;;11.30;99.90;;;;;;4971271;28;20438;-72
2023/01/07 05:15:16;;;;;;;2.33;1.40;;;11.30;99.90;;;;;;4977452;28;20500;-72
2023/01/07 05:17:42;;;;;;;2.00;1.57;;;11.30;99.90;;;;;;4978600;28;20509;-72
2023/01/07 05:20:09;;;;;;;1.67;1.40;;;11.30;99.90;;;;;;4953897;28;20529;-72
2023/01/07 05:22:39;;;;;;;3.30;1.37;;;11.30;99.90;;;;;;4940557;28;20803;-72
2023/01/07 05:25:06;;;;;;;2.27;1.43;;;11.30;99.90;;;;;;4955479;28;20572;-72
2023/01/07 05:27:32;;;;;;;2.23;1.60;;;11.30;99.90;;;;;;4960688;28;20430;-72
2023/01/07 05:30:02;;;;;;;1.50;1.40;;;11.30;99.90;;;;;;4975401;28;20497;-72
2023/01/07 05:32:28;;;;;;;1.83;1.43;;;11.30;99.90;;;;;;4971514;28;20806;-72
2023/01/07 05:34:54;;;;;;;1.90;1.60;;;11.30;99.90;;;;;;4955252;28;20465;-72
2023/01/07 05:37:21;;;;;;;2.37;1.30;;;11.30;99.90;;;;;;4940258;28;20498;-72
2023/01/07 05:39:50;;;;;;;2.37;1.30;;;11.30;99.90;;;;;;4992342;28;21021;-72
2023/01/07 05:42:18;;;;;;;1.83;1.50;;;11.30;99.90;;;;;;4991494;28;20502;-72
2023/01/07 05:44:46;;;;;;;2.37;1.57;;;11.30;99.90;;;;;;4976277;28;20539;-72
2023/01/07 05:47:12;;;;;;;1.60;1.43;;;11.30;99.90;;;;;;4971854;28;20434;-72
2023/01/07 05:49:41;;;;;;;1.60;1.40;;;11.30;99.90;;;;;;4969267;28;20402;-72
2023/01/07 05:52:07;;;;;;;2.67;1.40;;;11.30;99.90;;;;;;4972933;28;20490;-72
2023/01/07 05:54:36;;;;;;;2.30;1.60;;;11.30;99.90;;;;;;4975427;28;20481;-72
2023/01/07 05:57:04;;;;;;;1.70;1.20;;;11.30;99.90;;;;;;4973117;28;20402;-72
2023/01/07 05:59:35;;;;;;;2.03;1.83;;;11.30;99.90;;;;;;4983825;28;20453;-72
2023/01/07 06:02:04;;;;;;;2.10;1.27;;;11.30;99.90;;;;;;4959298;28;20543;-72
2023/01/07 06:07:22;;;;;;;2.33;1.77;;;11.30;99.90;;;;;;4950004;28;20537;-75
2023/01/07 06:09:48;;;;;;;1.93;1.50;;;11.30;99.90;;;;;;4948212;29;20454;-75
2023/01/07 06:12:17;;;;;;;2.03;1.60;;;11.30;99.90;;;;;;4967516;28;20490;-75
2023/01/07 06:14:42;;;;;;;1.57;1.40;;;11.20;99.90;;;;;;4968239;28;20936;-75
2023/01/07 06:17:08;;;;;;;3.23;1.33;;;11.20;99.90;;;;;;4955604;28;20515;-75
2023/01/07 06:19:34;;;;;;;2.43;1.60;;;11.20;99.90;;;;;;4946277;29;20429;-74
2023/01/07 06:22:00;;;;;;;4.63;1.90;;;11.20;99.90;;;;;;4952083;28;20454;-74
2023/01/07 06:24:26;;;;;;;2.10;1.47;;;11.20;99.90;;;;;;4954705;28;20862;-75
2023/01/07 06:26:58;;;;;;;2.47;1.37;;;11.20;99.90;;;;;;4955711;29;20423;-75
2023/01/07 06:29:24;;;;;;;1.97;1.60;;;11.20;99.90;;;;;;4935795;29;20419;-75
2023/01/07 06:31:52;;;;;;;3.40;1.40;;;11.20;99.90;;;;;;4955172;29;20912;-75
2023/01/07 06:34:18;;;;;;;2.17;1.63;;;11.20;99.90;;;;;;4938758;29;20462;-75
2023/01/07 06:36:47;;;;;;;2.00;1.50;;;11.20;99.90;;;;;;4956117;29;20462;-75
2023/01/07 06:39:13;;;;;;;1.97;1.40;;;11.20;99.90;;;;;;4962179;28;20519;-75
2023/01/07 06:41:40;;;;;;;1.87;1.63;;;11.20;99.90;;;;;;4954665;29;20195;-75
2023/01/07 06:44:06;;;;;;;2.57;1.60;;;11.20;99.90;;;;;;4961612;28;21035;-75
2023/01/07 06:46:32;;;;;;;1.73;1.53;;;11.20;99.90;;;;;;4957775;28;20424;-75
2023/01/07 06:48:59;;;;;;;1.43;1.10;;;11.20;99.90;;;;;;4956120;28;20511;-74
2023/01/07 06:51:25;;;;;;;2.37;1.43;;;11.20;99.90;;;;;;4954781;29;20464;-75
2023/01/07 06:53:50;;;;;;;2.50;1.73;;;11.20;99.90;;;;;;4970489;28;20447;-75
2023/01/07 06:56:21;;;;;;;2.53;1.63;;;11.20;99.90;;;;;;4954510;29;20618;-75
2023/01/07 06:58:47;;;;;;;1.73;1.20;;;11.20;99.90;;;;;;4970214;28;20424;-75
2023/01/07 07:01:16;;;;;;;2.33;1.47;;;11.10;99.90;;;;;;4940172;28;20474;-74
2023/01/07 07:03:42;;;;;;;1.93;1.73;;;11.20;99.90;;;;;;4965784;28;20513;-74
2023/01/07 07:06:08;;;;;;;2.50;1.63;;;11.20;99.90;;;;;;4955123;28;20443;-75
2023/01/07 07:08:35;;;;;;;1.70;1.50;;;11.20;99.90;;;;;;4954705;29;20415;-75
2023/01/07 07:11:01;;;;;;;2.87;1.70;;;11.10;99.90;;;;;;4942504;28;20456;-75
2023/01/07 07:13:27;;;;;;;1.67;1.50;;;11.10;99.90;;;;;;4919665;29;20498;-75
2023/01/07 07:15:53;;;;;;;2.07;1.57;;;11.20;99.90;;;;;;4946521;29;20420;-75
2023/01/07 07:18:19;;;;;;;1.83;1.40;;;11.20;99.90;;;;;;4955640;28;20404;-75
2023/01/07 07:20:46;;;;;;;2.57;1.70;;;11.10;99.90;;;;;;4954309;29;20455;-75
2023/01/07 07:23:14;;;;;;;3.47;1.73;;;11.10;99.90;;;;;;4922410;28;20447;-74
2023/01/07 07:25:41;;;;;;;2.43;1.80;;;11.20;99.90;;;;;;4938250;29;20426;-75
2023/01/07 07:28:10;;;;;;;2.40;1.90;;;11.10;99.90;;;;;;4953766;29;21067;-75
2023/01/07 07:30:40;;;;;;;2.00;1.80;;;11.10;99.90;;;;;;4953439;28;20549;-75
2023/01/07 07:33:11;;;;;;;2.93;1.63;;;11.20;99.90;;;;;;4954107;28;20447;-74
2023/01/07 07:35:45;;;;;;;1.90;1.70;;;11.10;99.90;;;;;;4953446;28;20529;-75
2023/01/07 07:38:11;;;;;;;3.47;1.67;;;11.10;99.90;;;;;;4954178;29;20403;-75
2023/01/07 07:40:37;;;;;;;1.90;1.60;;;11.10;99.90;;;;;;4953984;29;20458;-75
2023/01/07 07:43:07;;;;;;;6.10;1.90;;;11.10;99.90;;;;;;4954145;28;20459;-75
2023/01/07 07:45:33;;;;;;;1.70;1.60;;;11.10;99.90;;;;;;4955098;28;20518;-74
2023/01/07 07:47:59;;;;;;;2.10;1.90;;;11.10;99.90;;;;;;4922592;29;20940;-74
2023/01/07 07:50:28;;;;;;;2.23;2.00;;;11.10;99.90;;;;;;4937614;29;20475;-75
2023/01/07 07:52:56;;;;;;;2.50;2.03;;;11.10;99.90;;;;;;4953981;29;20498;-75
2023/01/07 07:55:25;;;;;;;1.73;1.53;;;11.10;99.90;;;;;;4937606;29;20940;-75
2023/01/07 07:57:55;;;;;;;2.40;2.00;;;11.10;99.90;;;;;;4953463;28;20443;-74
2023/01/07 08:00:24;;;;;;;1.90;1.80;;;11.10;99.90;;;;;;4969183;28;20545;-75
2023/01/07 08:02:56;;;;;;;2.00;1.80;;;11.10;99.90;;;;;;4953683;29;20423;-75
2023/01/07 08:05:22;;;;;;;3.93;1.80;;;11.10;99.90;;;;;;4955064;28;20448;-75
2023/01/07 08:07:48;;;;;;;2.20;1.73;;;11.10;99.90;;;;;;4954672;28;20977;-75
2023/01/07 08:10:17;;;;;;;2.77;1.70;;;11.10;99.90;;;;;;4954770;28;20427;-75
2023/01/07 08:12:46;;;;;;;6.50;2.00;;;11.10;99.90;;;;;;4953963;28;20442;-75
2023/01/07 08:15:12;;;;;;;1.73;1.60;;;11.10;99.90;;;;;;4967739;28;20529;-75
2023/01/07 08:17:38;;;;;;;2.93;1.80;;;11.10;99.90;;;;;;4969167;28;20446;-75
2023/01/07 08:20:06;;;;;;;2.43;2.00;;;11.10;99.90;;;;;;4959544;28;20419;-75
2023/01/07 08:22:34;;;;;;;2.20;2.00;;;11.10;99.90;;;;;;4954578;28;20427;-75
2023/01/07 08:25:00;;;;;;;2.30;1.63;;;11.10;99.90;;;;;;4953890;29;20541;-75
2023/01/07 08:27:27;;;;;;;3.50;2.17;;;11.10;99.90;;;;;;4954179;28;20426;-75
2023/01/07 08:29:54;;;;;;;2.20;1.80;;;11.10;99.90;;;;;;4953688;29;20451;-75
2023/01/07 08:32:23;;;;;;;2.10;1.90;;;11.10;99.90;;;;;;4952805;28;20444;-75
2023/01/07 08:34:51;;;;;;;2.50;2.07;;;11.10;99.90;;;;;;4953599;29;20451;-75
2023/01/07 08:37:20;;;;;;;2.70;1.90;;;11.10;99.90;;;;;;4950353;28;20428;-75
2023/01/07 08:39:46;;;;;;;2.43;1.90;;;11.10;99.90;;;;;;4934382;29;20451;-73
2023/01/07 08:42:14;;;;;;;3.50;2.10;;;11.10;99.90;;;;;;4953335;29;20529;-73
2023/01/07 08:44:40;;;;;;;2.00;1.70;;;11.10;99.90;;;;;;4953753;28;20443;-72
2023/01/07 08:47:08;;;;;;;2.17;1.70;;;11.10;99.90;;;;;;4953063;29;20423;-74
2023/01/07 08:49:34;;;;;;;1.73;1.60;;;11.10;99.90;;;;;;4937462;29;20420;-73
2023/01/07 08:52:00;;;;;;;3.23;1.43;;;11.10;99.90;;;;;;4936373;29;20445;-73
2023/01/07 08:54:26;;;;;;;2.47;1.70;;;11.10;99.90;;;;;;4952740;29;20447;-72
2023/01/07 08:56:52;;;;;;;1.87;1.67;;;11.10;99.90;;;;;;4936633;29;20471;-73
2023/01/07 08:59:20;;;;;;;2.00;1.80;;;11.10;99.90;;;;;;4936322;29;20485;-73
2023/01/07 09:01:47;;;;;;;2.80;1.90;;;11.10;99.90;;;;;;4963943;28;20896;-73
2023/01/07 09:04:15;;;;;;;2.30;1.70;;;11.10;99.90;;;;;;4953371;28;20818;-73
2023/01/07 09:06:43;;;;;;;1.60;1.40;;;11.10;99.90;;;;;;4952951;28;20967;-73
2023/01/07 09:09:10;;;;;;;1.97;1.70;;;11.10;99.90;;;;;;4934506;29;20451;-73
2023/01/07 09:11:36;;;;;;;1.50;1.30;;;11.10;99.90;;;;;;4959215;28;20479;-72
2023/01/07 09:14:05;;;;;;;3.20;1.80;;;11.10;99.90;;;;;;4972777;28;20487;-73
2023/01/07 09:16:31;;;;;;;1.70;1.60;;;11.10;99.90;;;;;;4951663;28;20439;-72
2023/01/07 09:18:57;;;;;;;2.33;1.70;;;11.10;99.90;;;;;;4919704;29;20433;-72
2023/01/07 09:21:25;;;;;;;2.23;1.80;;;11.10;99.90;;;;;;4951307;28;20972;-73
2023/01/07 09:23:57;;;;;;;2.83;1.53;;;11.10;99.90;;;;;;4950687;29;20852;-73
2023/01/07 09:26:25;;;;;;;2.03;1.70;;;11.10;99.90;;;;;;4967184;28;20987;-72
2023/01/07 09:28:53;;;;;;;1.70;1.57;;;11.20;99.90;;;;;;4968681;28;20466;-72
2023/01/07 09:31:19;;;;;;;2.67;1.57;;;11.20;99.90;;;;;;4952913;29;20435;-72
2023/01/07 09:33:50;;;;;;;2.60;1.70;;;11.20;99.90;;;;;;4951015;29;20450;-72
2023/01/07 09:36:18;;;;;;;2.77;1.60;;;11.10;99.90;;;;;;4968886;28;20793;-72
2023/01/07 09:38:48;;;;;;;1.77;1.40;;;11.10;99.90;;;;;;4935175;28;20416;-72
2023/01/07 09:41:35;;;;;;;2.00;1.50;;;11.10;99.90;;;;;;4934957;29;20452;-72
2023/01/07 09:44:20;;;;;;;1.80;1.60;;;11.10;99.90;;;;;;4933386;29;20506;-73
2023/01/07 09:46:53;;;;;;;1.70;1.53;;;11.10;99.90;;;;;;4942377;29;20447;-73
2023/01/07 09:49:28;;;;;;;2.43;1.73;;;11.10;99.90;;;;;;4952609;29;20431;-72
2023/01/07 09:52:24;;;;;;;2.37;2.03;;;11.10;99.90;;;;;;4966043;28;20416;-75
2023/01/07 09:54:59;;;;;;;2.47;1.80;;;11.10;99.90;;;;;;4954136;28;20483;-74
2023/01/07 09:57:26;;;;;;;3.87;1.30;;;11.10;99.90;;;;;;4935907;29;20435;-74
2023/01/07 09:59:52;;;;;;;3.33;1.60;;;11.10;99.90;;;;;;4952493;29;20435;-73
2023/01/07 10:02:41;;;;;;;2.00;1.80;;;11.10;99.90;;;;;;4951597;29;20478;-74
2023/01/07 10:05:10;;;;;;;1.80;1.43;;;11.10;99.90;;;;;;4963677;28;20963;-73
2023/01/07 10:07:48;;;;;;;1.70;1.50;;;11.10;99.90;;;;;;4951420;29;20550;-74
2023/01/07 10:10:26;;;;;;;2.10;1.50;;;11.20;99.90;;;;;;4956039;29;20499;-73
2023/01/07 10:13:13;;;;;;;1.87;1.70;;;11.20;99.90;;;;;;4955931;29;20454;-73
2023/01/07 10:16:00;;;;;;;3.10;1.70;;;11.20;99.90;;;;;;4956040;29;20520;-74
2023/01/07 10:18:27;;;;;;;2.47;1.47;;;11.20;99.90;;;;;;4980478;28;20432;-74
2023/01/07 10:20:56;;;;;;;2.70;1.40;;;11.10;99.90;;;;;;4966032;28;20465;-74
2023/01/07 10:23:31;;;;;;;1.53;1.30;;;11.10;99.90;;;;;;4955549;29;20539;-73
2023/01/07 10:26:01;;;;;;;2.33;1.73;;;11.20;99.90;;;;;;4972830;28;20468;-73
2023/01/07 10:28:42;;;;;;;2.13;1.77;;;11.20;99.90;;;;;;4977073;28;20804;-74
2023/01/07 10:31:26;;;;;;;2.97;2.03;;;11.20;99.90;;;;;;4975745;28;20518;-74
2023/01/07 10:33:55;;;;;;;1.93;1.67;;;11.20;99.90;;;;;;4975335;28;20521;-74
2023/01/07 10:36:21;;;;;;;3.70;1.63;;;11.20;99.90;;;;;;4959628;28;20771;-74
2023/01/07 10:39:09;;;;;;;3.07;1.77;;;11.20;99.90;;;;;;4975563;28;20430;-74
2023/01/07 10:42:25;;;;;;;2.47;2.00;;;11.20;99.90;;;;;;4991631;28;20450;-74
2023/01/07 10:44:55;;;;;;;1.80;1.50;;;11.20;99.90;;;;;;4987431;28;20969;-74
2023/01/07 10:47:31;;;;;;;2.03;1.80;;;11.30;99.90;;;;;;4975484;28;20412;-74
2023/01/07 10:50:39;;;;;;;1.70;1.33;;;11.20;99.90;;;;;;4970167;28;20456;-74
2023/01/07 10:53:24;;;;;;;2.00;1.50;;;11.30;99.90;;;;;;4920870;29;20439;-73
2023/01/07 10:56:28;;;;;;;3.03;2.07;;;11.30;99.90;;;;;;4937689;29;20483;-74
2023/01/07 10:58:55;;;;;;;2.90;1.87;;;11.30;99.90;;;;;;4969731;28;20430;-73
2023/01/07 11:01:23;;;;;;;2.13;1.90;;;11.30;99.90;;;;;;4955914;29;20486;-74
2023/01/07 11:03:55;;;;;;;2.03;1.83;;;11.30;99.90;;;;;;4956934;28;20488;-75
2023/01/07 11:06:38;;;;;;;3.10;2.00;;;11.30;99.90;;;;;;4939423;29;20948;-75
2023/01/07 11:09:11;;;;;;;2.33;1.87;;;11.30;99.90;;;;;;4929189;28;20438;-74
2023/01/07 11:11:38;;;;;;;2.77;2.10;;;11.30;99.90;;;;;;4976236;28;20417;-74
2023/01/07 11:14:27;;;;;;;1.80;1.50;;;11.30;99.90;;;;;;4974454;28;20530;-74
2023/01/07 11:17:01;;;;;;;2.50;1.90;;;11.30;99.90;;;;;;4985754;28;20431;-74
2023/01/07 11:20:03;;;;;;;3.30;2.50;;;11.30;99.90;;;;;;4953814;29;20514;-73
2023/01/07 11:22:32;;;;;;;3.00;2.13;;;11.40;99.90;;;;;;4937010;29;20568;-74
2023/01/07 11:25:01;;;;;;;2.40;2.20;;;11.30;99.90;;;;;;4953790;29;20451;-74
2023/01/07 11:27:32;;;;;;;2.50;2.07;;;11.30;99.90;;;;;;4954770;28;20439;-73
2023/01/07 11:30:02;;;;;;;2.30;1.90;;;11.40;99.90;;;;;;4953473;29;20446;-74
2023/01/07 11:32:37;;;;;;;2.87;2.20;;;11.40;99.90;;;;;;4954440;28;20534;-72
2023/01/07 11:35:21;;;;;;;2.90;2.30;;;11.40;99.90;;;;;;4922354;29;20802;-74
2023/01/07 11:37:52;;;;;;;2.60;2.00;;;11.40;99.90;;;;;;4939153;29;20467;-75
2023/01/07 11:40:24;;;;;;;3.70;2.40;;;11.40;99.90;;;;;;4938840;29;20777;-73
2023/01/07 11:42:59;;;;;;;3.43;2.50;;;11.40;99.90;;;;;;4938542;29;20423;-72
2023/01/07 11:45:30;;;;;;;2.50;2.30;;;11.40;99.90;;;;;;4971257;28;20462;-73
2023/01/07 11:48:09;;;;;;;3.50;2.43;;;11.40;99.90;;;;;;4955312;29;20436;-73
2023/01/07 11:50:38;;;;;;;5.30;2.70;;;11.40;99.90;;;;;;4971283;28;20421;-73
2023/01/07 11:53:12;;;;;;;3.07;2.13;;;11.50;99.90;;;;;;4939429;29;20513;-73
2023/01/07 11:55:54;;;;;;;3.90;2.77;;;11.50;99.90;;;;;;4955166;28;20767;-72
2023/01/07 11:58:29;;;;;;;3.60;2.50;;;11.50;99.90;;;;;;4947547;29;20426;-72
2023/01/07 12:01:06;;;;;;;3.60;2.90;;;11.40;99.90;;;;;;4956686;28;20485;-73
2023/01/07 12:03:43;;;;;;;4.80;3.20;;;11.40;99.90;;;;;;4955703;28;20455;-73
2023/01/07 12:06:23;;;;;;;2.90;2.70;;;11.50;99.90;;;;;;4954186;29;20432;-73
2023/01/07 12:09:08;;;;;;;4.20;3.00;;;11.50;99.90;;;;;;4954902;29;20431;-73
2023/01/07 12:11:39;;;;;;;3.60;2.60;;;11.50;99.90;;;;;;4955998;29;20410;-73
2023/01/07 12:14:17;;;;;;;4.80;2.60;;;11.50;99.90;;;;;;4938531;29;20443;-73
2023/01/07 12:16:44;;;;;;;4.40;3.03;;;11.50;99.90;;;;;;4970810;28;20407;-73
2023/01/07 12:19:30;;;;;;;4.90;3.30;;;11.50;99.90;;;;;;4952157;28;20983;-75
2023/01/07 12:22:11;;;;;;;5.00;3.37;;;11.50;99.90;;;;;;4951103;29;20480;-71
2023/01/07 12:24:46;;;;;;;3.10;2.70;;;11.50;99.90;;;;;;4947395;29;20444;-73
2023/01/07 12:27:39;;;;;;;3.43;2.53;;;11.50;99.90;;;;;;4933827;29;20403;-72
2023/01/07 12:30:18;;;;;;;5.10;3.60;;;11.60;99.90;;;;;;4915875;29;20504;-72
2023/01/07 12:32:50;;;;;;;3.60;2.50;;;11.50;99.90;;;;;;4945104;29;21000;-69
2023/01/07 12:35:19;;;;;;;3.50;2.57;;;11.60;99.90;;;;;;4954282;29;20464;-74
2023/01/07 12:38:04;;;;;;;2.90;2.60;;;11.60;99.90;;;;;;4953682;28;20430;-74
2023/01/07 12:40:48;;;;;;;3.30;2.60;;;11.60;99.90;;;;;;4970521;28;20863;-74
2023/01/07 12:43:38;;;;;;;3.50;2.20;;;11.50;99.90;;;;;;4941221;29;20493;-74
2023/01/07 12:46:11;;;;;;;2.93;2.57;;;11.60;99.90;;;;;;4922787;29;20514;-72
2023/01/07 12:49:01;;;;;;;2.70;2.37;;;11.50;99.90;;;;;;4953669;29;20436;-74
2023/01/07 12:51:59;;;;;;;2.80;2.30;;;11.60;99.90;;;;;;4955372;29;20951;-74
2023/01/07 12:54:46;;;;;;;2.47;2.13;;;11.60;99.90;;;;;;4952382;28;20578;-73
2023/01/07 12:57:44;;;;;;;3.40;2.10;;;11.60;99.90;;;;;;4935418;29;20904;-74
2023/01/07 13:00:24;;;;;;;2.20;2.00;;;11.60;99.90;;;;;;4936662;29;20957;-73
2023/01/07 13:03:28;;;;;;;2.70;2.20;;;11.60;99.90;;;;;;4953424;29;20435;-73
2023/01/07 13:06:04;;;;;;;2.27;1.83;;;11.50;99.90;;;;;;4961307;28;20477;-72
2023/01/07 13:08:50;;;;;;;2.33;2.13;;;11.60;99.90;;;;;;4975498;28;20438;-72
2023/01/07 13:14:26;;;;;;;2.63;1.87;;;11.60;99.90;;;;;;4940848;29;20436;-73
2023/01/07 13:17:00;;;;;;;2.20;2.00;;;11.60;99.90;;;;;;4968397;28;20412;-74
2023/01/07 13:19:29;;;;;;;2.40;2.10;;;11.60;99.90;;;;;;4952222;29;20446;-73
2023/01/07 13:21:56;;;;;;;3.07;2.00;;;11.60;99.90;;;;;;4947605;29;20491;-75
2023/01/07 13:24:45;;;;;;;2.73;1.87;;;11.60;99.90;;;;;;4944988;28;20815;-75
2023/01/07 13:27:20;;;;;;;2.20;1.77;;;11.50;99.90;;;;;;4973171;28;20402;-73